Time;durP1;ratioP1;P1;durP2;ratioP2;P2;SDS_P1;SDS_P2;PMS_P1;PMS_P2;Temp;Humidity;BMP_temperature;BMP_pressure;BME280_temperature;BME280_humidity;BME280_pressure;Samples;Min_cycle;Max_cycle;Signal;HPM_P1;HPM_P2
2022/10/29 00:01:39;;;;;;;4.47;1.80;;;15.40;99.90;;;;;;5050967;28;20231;-65
2022/10/29 00:04:05;;;;;;;14.13;1.93;;;15.40;99.90;;;;;;5051183;28;20178;-65
2022/10/29 00:06:31;;;;;;;8.73;2.30;;;15.40;99.90;;;;;;5051508;28;20592;-65
2022/10/29 00:08:56;;;;;;;8.63;2.27;;;15.40;99.90;;;;;;5051248;28;20193;-65
2022/10/29 00:11:22;;;;;;;9.07;2.37;;;15.30;99.90;;;;;;5049220;28;20295;-65
2022/10/29 00:13:53;;;;;;;4.80;2.20;;;15.20;99.90;;;;;;5044791;28;20740;-65
2022/10/29 00:16:21;;;;;;;3.70;2.23;;;15.10;99.90;;;;;;5051296;28;20189;-65
2022/10/29 00:18:47;;;;;;;7.70;1.93;;;15.00;99.90;;;;;;5050687;28;20830;-65
2022/10/29 00:21:15;;;;;;;6.00;2.50;;;15.00;99.90;;;;;;5050865;28;20494;-65
2022/10/29 00:23:41;;;;;;;10.40;2.37;;;14.90;99.90;;;;;;5050197;28;20537;-66
2022/10/29 00:26:07;;;;;;;8.10;1.87;;;14.80;99.90;;;;;;5051070;28;20441;-65
2022/10/29 00:28:33;;;;;;;5.63;2.10;;;14.70;99.90;;;;;;5050469;28;20188;-65
2022/10/29 00:31:08;;;;;;;4.40;2.47;;;14.70;99.90;;;;;;5049743;28;20545;-65
2022/10/29 00:33:34;;;;;;;3.40;1.83;;;14.60;99.90;;;;;;5047284;28;20431;-65
2022/10/29 00:36:04;;;;;;;4.77;2.27;;;14.50;99.90;;;;;;5050712;28;20471;-65
2022/10/29 00:38:32;;;;;;;5.97;2.00;;;14.40;99.90;;;;;;5050944;28;20174;-65
2022/10/29 00:40:59;;;;;;;6.73;2.17;;;14.30;99.90;;;;;;5050867;28;20506;-65
2022/10/29 00:43:25;;;;;;;12.93;2.30;;;14.20;99.90;;;;;;5048688;28;20424;-65
2022/10/29 00:46:04;;;;;;;8.90;2.10;;;14.10;99.90;;;;;;5050933;28;20794;-65
2022/10/29 00:48:34;;;;;;;3.53;1.93;;;14.00;99.90;;;;;;5050777;28;20435;-65
2022/10/29 00:51:04;;;;;;;7.60;2.70;;;13.90;99.90;;;;;;5050689;28;20447;-65
2022/10/29 00:53:33;;;;;;;16.27;2.80;;;14.00;99.90;;;;;;5050535;28;20428;-65
2022/10/29 00:55:59;;;;;;;4.80;2.50;;;14.00;99.90;;;;;;5050809;28;20512;-65
2022/10/29 00:58:26;;;;;;;5.90;2.33;;;14.00;99.90;;;;;;5052166;28;20413;-65
2022/10/29 01:00:52;;;;;;;2.97;1.87;;;13.90;99.90;;;;;;5053516;28;20421;-65
2022/10/29 01:03:17;;;;;;;5.53;2.03;;;14.00;99.90;;;;;;5053527;28;20416;-65
2022/10/29 01:05:44;;;;;;;10.07;2.60;;;14.00;99.90;;;;;;5054022;28;20194;-65
2022/10/29 01:08:11;;;;;;;18.67;2.13;;;14.00;99.90;;;;;;5053948;28;20186;-65
2022/10/29 01:11:01;;;;;;;5.83;2.80;;;14.00;99.90;;;;;;5053857;28;20420;-65
2022/10/29 01:13:58;;;;;;;11.33;2.23;;;14.10;99.90;;;;;;5045196;28;20424;-65
2022/10/29 01:16:33;;;;;;;6.97;2.23;;;14.10;99.90;;;;;;5054198;28;20515;-65
2022/10/29 01:19:11;;;;;;;4.30;2.57;;;14.10;99.90;;;;;;5053671;28;20807;-65
2022/10/29 01:21:41;;;;;;;4.50;1.80;;;14.20;99.90;;;;;;5045307;28;20459;-65
2022/10/29 01:24:27;;;;;;;2.07;1.30;;;14.20;99.90;;;;;;5053818;28;20424;-65
2022/10/29 01:26:57;;;;;;;16.40;2.90;;;14.20;99.90;;;;;;5053302;28;20930;-65
2022/10/29 01:29:41;;;;;;;3.70;1.93;;;14.30;99.90;;;;;;5053676;28;20954;-65
2022/10/29 01:32:15;;;;;;;5.57;2.77;;;14.30;99.90;;;;;;5053087;28;20519;-65
2022/10/29 01:34:57;;;;;;;5.50;1.93;;;14.40;99.90;;;;;;5053386;28;21003;-65
2022/10/29 01:37:48;;;;;;;3.67;2.20;;;14.40;99.90;;;;;;5053704;28;20420;-65
2022/10/29 01:40:35;;;;;;;3.70;1.70;;;14.50;99.90;;;;;;5053240;28;20431;-65
2022/10/29 01:43:19;;;;;;;10.23;2.13;;;14.60;99.90;;;;;;5051087;28;20408;-65
2022/10/29 01:45:57;;;;;;;2.33;1.47;;;14.70;99.90;;;;;;5053749;28;20404;-65
2022/10/29 01:48:28;;;;;;;4.43;2.30;;;14.70;99.90;;;;;;5053220;28;20424;-65
2022/10/29 01:50:58;;;;;;;6.00;2.07;;;14.70;99.90;;;;;;5053352;28;20961;-65
2022/10/29 01:53:27;;;;;;;7.77;2.50;;;14.70;99.90;;;;;;5052795;28;20420;-65
2022/10/29 01:55:52;;;;;;;5.97;2.67;;;14.60;99.90;;;;;;5053136;28;20471;-65
2022/10/29 01:58:18;;;;;;;4.67;1.90;;;14.60;99.90;;;;;;5052673;28;20416;-65
2022/10/29 02:01:14;;;;;;;9.20;2.70;;;14.50;99.90;;;;;;5053105;28;20272;-65
2022/10/29 02:04:13;;;;;;;4.30;2.10;;;14.50;99.90;;;;;;5052812;28;20228;-65
2022/10/29 02:06:49;;;;;;;12.20;2.27;;;14.40;99.90;;;;;;5052810;28;20852;-66
2022/10/29 02:09:30;;;;;;;5.20;1.77;;;14.40;99.90;;;;;;5052711;28;20426;-65
2022/10/29 02:12:09;;;;;;;7.60;3.33;;;14.40;99.90;;;;;;5051795;28;20477;-65
2022/10/29 02:14:42;;;;;;;7.37;1.77;;;14.40;99.90;;;;;;5046259;28;20542;-65
2022/10/29 02:17:08;;;;;;;7.13;1.97;;;14.30;99.90;;;;;;5052769;28;20415;-65
2022/10/29 02:19:35;;;;;;;5.80;2.70;;;14.30;99.90;;;;;;5052553;28;20425;-65
2022/10/29 02:22:01;;;;;;;9.20;2.00;;;14.30;99.90;;;;;;5052338;28;20178;-65
2022/10/29 02:24:27;;;;;;;6.47;2.33;;;14.30;99.90;;;;;;5052978;28;20466;-66
2022/10/29 02:26:52;;;;;;;3.43;1.77;;;14.30;99.90;;;;;;5052234;28;20188;-65
2022/10/29 02:29:18;;;;;;;8.90;2.83;;;14.50;99.90;;;;;;5052903;28;20277;-65
2022/10/29 02:31:44;;;;;;;4.60;2.13;;;14.50;99.90;;;;;;5050854;28;20193;-65
2022/10/29 02:34:09;;;;;;;7.53;2.73;;;14.50;99.90;;;;;;5052555;28;20201;-65
2022/10/29 02:36:35;;;;;;;2.40;1.37;;;14.60;99.90;;;;;;5052136;28;20544;-65
2022/10/29 02:39:00;;;;;;;10.03;1.80;;;14.60;99.90;;;;;;5051104;28;20192;-65
2022/10/29 02:41:26;;;;;;;9.73;2.47;;;14.70;99.90;;;;;;5050915;28;20174;-65
2022/10/29 02:43:52;;;;;;;7.87;2.53;;;14.70;99.90;;;;;;5051835;28;20638;-66
2022/10/29 02:46:20;;;;;;;2.60;1.50;;;14.70;99.90;;;;;;5052002;28;20205;-66
2022/10/29 02:48:46;;;;;;;8.90;1.90;;;14.80;99.90;;;;;;5052240;28;20521;-66
2022/10/29 02:51:13;;;;;;;4.80;2.20;;;14.90;99.90;;;;;;5051927;28;20424;-66
2022/10/29 02:53:39;;;;;;;5.73;1.90;;;14.90;99.90;;;;;;5051768;28;20421;-66
2022/10/29 02:56:05;;;;;;;9.40;1.90;;;15.00;99.90;;;;;;5051982;28;20460;-66
2022/10/29 02:58:31;;;;;;;5.83;2.30;;;15.00;99.90;;;;;;5051650;28;20514;-66
2022/10/29 03:00:57;;;;;;;5.43;2.23;;;15.00;99.90;;;;;;5051767;28;20431;-66
2022/10/29 03:03:23;;;;;;;13.73;2.10;;;15.10;99.90;;;;;;5051372;28;20421;-66
2022/10/29 03:05:49;;;;;;;5.60;1.93;;;15.10;99.90;;;;;;5051671;28;20178;-66
2022/10/29 03:08:15;;;;;;;8.53;2.40;;;15.20;99.90;;;;;;5051894;28;20477;-66
2022/10/29 03:10:41;;;;;;;15.93;2.87;;;15.20;99.90;;;;;;5051902;28;20185;-66
2022/10/29 03:13:06;;;;;;;6.90;1.73;;;15.20;99.90;;;;;;5043020;28;20427;-66
2022/10/29 03:15:32;;;;;;;8.60;2.50;;;15.20;99.90;;;;;;5051264;28;20217;-66
2022/10/29 03:17:57;;;;;;;7.80;1.90;;;15.20;99.90;;;;;;5051722;28;20180;-66
2022/10/29 03:20:23;;;;;;;3.47;1.67;;;15.20;99.90;;;;;;5046231;28;20190;-66
2022/10/29 03:22:48;;;;;;;3.20;1.83;;;15.20;99.90;;;;;;5051135;28;20270;-66
2022/10/29 03:25:14;;;;;;;12.13;2.50;;;15.20;99.90;;;;;;5051625;28;20192;-66
2022/10/29 03:27:43;;;;;;;4.43;2.23;;;15.40;99.90;;;;;;5049948;28;20196;-66
2022/10/29 03:30:14;;;;;;;2.50;1.80;;;15.30;99.90;;;;;;5050396;28;20197;-67
2022/10/29 03:32:44;;;;;;;3.20;1.80;;;15.30;99.90;;;;;;5050940;28;20420;-66
2022/10/29 03:35:12;;;;;;;9.47;2.60;;;15.20;99.90;;;;;;5051417;28;20460;-67
2022/10/29 03:37:37;;;;;;;16.17;1.70;;;15.20;99.90;;;;;;5051529;28;20943;-66
2022/10/29 03:40:04;;;;;;;6.53;1.70;;;15.20;99.90;;;;;;5051155;28;20439;-66
2022/10/29 03:42:30;;;;;;;6.77;2.13;;;15.20;99.90;;;;;;5049155;28;20240;-66
2022/10/29 03:44:59;;;;;;;9.60;2.17;;;15.20;99.90;;;;;;5051273;28;20916;-66
2022/10/29 03:47:25;;;;;;;6.83;2.03;;;15.20;99.90;;;;;;5051492;28;20182;-66
2022/10/29 03:49:51;;;;;;;7.27;2.37;;;15.20;99.90;;;;;;5051206;28;20416;-67
2022/10/29 03:52:16;;;;;;;3.10;1.70;;;15.20;99.90;;;;;;5050582;28;20519;-67
2022/10/29 03:54:42;;;;;;;2.83;1.47;;;15.20;99.90;;;;;;5051071;28;20539;-66
2022/10/29 03:57:08;;;;;;;4.10;1.50;;;15.30;99.90;;;;;;5051151;28;20247;-66
2022/10/29 03:59:33;;;;;;;6.70;2.17;;;15.40;99.90;;;;;;5051738;28;20193;-66
2022/10/29 04:01:59;;;;;;;6.50;2.33;;;15.60;99.90;;;;;;5050742;28;20268;-66
2022/10/29 04:04:24;;;;;;;6.97;1.43;;;15.60;99.90;;;;;;5051413;28;20192;-67
2022/10/29 04:06:50;;;;;;;11.83;2.10;;;15.50;99.90;;;;;;5051049;28;20839;-66
2022/10/29 04:09:15;;;;;;;2.60;1.10;;;15.50;99.90;;;;;;5050895;28;20188;-67
2022/10/29 04:11:41;;;;;;;4.47;2.10;;;15.50;99.90;;;;;;5045881;28;20192;-66
2022/10/29 04:14:08;;;;;;;5.60;2.20;;;15.50;99.90;;;;;;5048131;28;20233;-66
2022/10/29 04:16:34;;;;;;;8.80;2.67;;;15.40;99.90;;;;;;5051280;28;20198;-66
2022/10/29 04:18:59;;;;;;;6.23;1.90;;;15.30;99.90;;;;;;5050899;28;20420;-66
2022/10/29 04:21:25;;;;;;;3.57;2.30;;;15.30;99.90;;;;;;5050741;28;20780;-66
2022/10/29 04:23:50;;;;;;;14.73;2.40;;;15.20;99.90;;;;;;5050324;28;20209;-66
2022/10/29 04:26:16;;;;;;;6.00;2.10;;;15.10;99.90;;;;;;5051163;28;20174;-66
2022/10/29 04:28:42;;;;;;;9.43;2.40;;;15.10;99.90;;;;;;5050655;28;20177;-66
2022/10/29 04:31:11;;;;;;;3.60;2.10;;;14.90;99.90;;;;;;5050083;28;20192;-66
2022/10/29 04:33:37;;;;;;;3.70;1.93;;;14.90;99.90;;;;;;5052379;28;20444;-66
2022/10/29 04:36:03;;;;;;;5.07;2.07;;;14.90;99.90;;;;;;5054366;28;20459;-66
2022/10/29 04:38:29;;;;;;;6.30;2.80;;;14.70;99.90;;;;;;5054800;28;20176;-66
2022/10/29 04:40:59;;;;;;;11.00;1.50;;;14.70;99.90;;;;;;5054824;28;20738;-66
2022/10/29 04:43:25;;;;;;;3.67;2.17;;;14.70;99.90;;;;;;5052429;28;20916;-66
2022/10/29 04:45:52;;;;;;;5.80;2.57;;;14.50;99.90;;;;;;5054903;28;20956;-66
2022/10/29 04:48:19;;;;;;;5.70;2.13;;;14.50;99.90;;;;;;5054503;28;20884;-66
2022/10/29 04:50:45;;;;;;;9.77;2.43;;;14.40;99.90;;;;;;5054708;28;20424;-66
2022/10/29 04:53:11;;;;;;;7.13;3.20;;;14.30;99.90;;;;;;5053886;28;20423;-66
2022/10/29 04:55:37;;;;;;;6.40;2.30;;;14.30;99.90;;;;;;5054493;28;20686;-66
2022/10/29 04:58:04;;;;;;;14.30;2.57;;;14.30;99.90;;;;;;5053828;28;20507;-66
2022/10/29 05:00:31;;;;;;;12.63;2.80;;;14.20;99.90;;;;;;5054314;28;20408;-66
2022/10/29 05:02:56;;;;;;;7.20;2.07;;;14.10;99.90;;;;;;5053501;28;20412;-66
2022/10/29 05:05:22;;;;;;;3.90;2.10;;;14.00;99.90;;;;;;5053995;28;20517;-66
2022/10/29 05:07:48;;;;;;;8.03;2.43;;;13.90;99.90;;;;;;5053973;28;20704;-66
2022/10/29 05:10:14;;;;;;;4.50;1.60;;;13.90;99.90;;;;;;5053892;28;20182;-66
2022/10/29 05:12:39;;;;;;;4.73;1.93;;;13.90;99.90;;;;;;5045664;28;20189;-66
2022/10/29 05:15:06;;;;;;;2.20;1.43;;;14.00;99.90;;;;;;5054126;28;20459;-66
2022/10/29 05:17:36;;;;;;;4.27;1.77;;;14.00;99.90;;;;;;5053871;28;20186;-66
2022/10/29 05:20:01;;;;;;;13.13;2.70;;;14.00;99.90;;;;;;5052427;28;20436;-66
2022/10/29 05:22:27;;;;;;;4.73;2.33;;;14.10;99.90;;;;;;5053292;28;20806;-66
2022/10/29 05:24:52;;;;;;;12.77;2.60;;;14.20;99.90;;;;;;5054022;28;20220;-66
2022/10/29 05:27:18;;;;;;;2.87;1.30;;;14.30;99.90;;;;;;5053338;28;20630;-66
2022/10/29 05:29:43;;;;;;;6.73;2.73;;;14.30;99.90;;;;;;5052723;28;20301;-66
2022/10/29 05:32:09;;;;;;;7.93;1.53;;;14.30;99.90;;;;;;5053199;28;20190;-66
2022/10/29 05:34:35;;;;;;;2.57;1.57;;;14.30;99.90;;;;;;5053795;28;20205;-66
2022/10/29 05:37:00;;;;;;;5.40;2.73;;;14.20;99.90;;;;;;5053491;28;20212;-66
2022/10/29 05:39:26;;;;;;;9.83;2.27;;;14.10;99.90;;;;;;5053685;28;20231;-66
2022/10/29 05:41:51;;;;;;;6.57;2.30;;;14.00;99.90;;;;;;5052022;28;20201;-66
2022/10/29 05:44:17;;;;;;;7.67;2.80;;;13.80;99.90;;;;;;5051680;28;20630;-66
2022/10/29 05:46:42;;;;;;;5.50;1.70;;;13.70;99.90;;;;;;5053257;28;20190;-66
2022/10/29 05:49:08;;;;;;;6.30;1.70;;;13.60;99.90;;;;;;5053662;28;20181;-66
2022/10/29 05:51:33;;;;;;;7.97;1.57;;;13.50;99.90;;;;;;5052700;28;20198;-66
2022/10/29 05:53:59;;;;;;;2.83;1.73;;;13.30;99.90;;;;;;5053031;28;20605;-66
2022/10/29 05:56:24;;;;;;;2.17;1.37;;;13.20;99.90;;;;;;5053277;28;20178;-66
2022/10/29 05:58:50;;;;;;;3.80;2.30;;;13.20;99.90;;;;;;5052521;28;20232;-66
2022/10/29 06:01:18;;;;;;;5.10;2.43;;;13.10;99.90;;;;;;5053161;28;20201;-66
2022/10/29 06:03:44;;;;;;;3.47;1.73;;;13.00;99.90;;;;;;5052834;28;20182;-66
2022/10/29 06:06:09;;;;;;;8.67;2.70;;;13.00;99.90;;;;;;5052821;28;20420;-66
2022/10/29 06:08:35;;;;;;;13.23;3.07;;;13.00;99.90;;;;;;5052993;28;20220;-66
2022/10/29 06:11:02;;;;;;;6.23;2.30;;;13.00;99.90;;;;;;5052893;28;20197;-66
2022/10/29 06:13:27;;;;;;;6.33;2.57;;;13.00;99.90;;;;;;5043484;28;20193;-66
2022/10/29 06:15:57;;;;;;;5.73;2.47;;;13.00;99.90;;;;;;5053028;28;20467;-66
2022/10/29 06:18:23;;;;;;;6.13;2.67;;;13.10;99.90;;;;;;5053008;28;20185;-66
2022/10/29 06:20:48;;;;;;;11.17;2.07;;;13.10;99.90;;;;;;5052640;28;20765;-66
2022/10/29 06:23:14;;;;;;;10.53;3.60;;;13.20;99.90;;;;;;5052368;28;20184;-66
2022/10/29 06:25:40;;;;;;;6.40;2.03;;;13.20;99.90;;;;;;5052856;28;20220;-67
2022/10/29 06:28:14;;;;;;;6.50;2.50;;;13.10;99.90;;;;;;5052270;28;20190;-66
2022/10/29 06:30:40;;;;;;;11.43;3.23;;;13.20;99.90;;;;;;5051440;28;20182;-66
2022/10/29 06:33:06;;;;;;;6.13;2.57;;;13.10;99.90;;;;;;5051768;28;20514;-66
2022/10/29 06:35:33;;;;;;;17.77;2.60;;;13.10;99.90;;;;;;5052186;28;20491;-66
2022/10/29 06:37:58;;;;;;;4.73;2.57;;;13.20;99.90;;;;;;5052370;28;20424;-66
2022/10/29 06:40:24;;;;;;;4.30;2.43;;;13.10;99.90;;;;;;5052591;28;20416;-66
2022/10/29 06:42:58;;;;;;;7.30;2.57;;;13.10;99.90;;;;;;5050933;28;20626;-66
2022/10/29 06:45:24;;;;;;;7.70;2.93;;;13.10;99.90;;;;;;5052423;28;20192;-66
2022/10/29 06:47:49;;;;;;;7.73;3.20;;;13.10;99.90;;;;;;5051987;28;20412;-66
2022/10/29 06:50:15;;;;;;;11.60;2.67;;;13.10;99.90;;;;;;5052089;28;20186;-66
2022/10/29 06:52:40;;;;;;;3.67;2.10;;;13.10;99.90;;;;;;5051443;28;20189;-66
2022/10/29 06:55:07;;;;;;;13.17;2.67;;;13.20;99.90;;;;;;5051447;28;20651;-66
2022/10/29 06:57:33;;;;;;;6.13;2.37;;;13.30;99.90;;;;;;5051452;28;20189;-66
2022/10/29 06:59:58;;;;;;;6.77;2.23;;;13.40;99.90;;;;;;5052295;28;20426;-66
2022/10/29 07:02:24;;;;;;;4.77;2.47;;;13.70;99.90;;;;;;5051422;28;20276;-65
2022/10/29 07:04:50;;;;;;;5.57;2.50;;;13.80;99.90;;;;;;5052336;28;20208;-65
2022/10/29 07:07:16;;;;;;;2.73;1.53;;;13.90;99.90;;;;;;5051662;28;20428;-65
2022/10/29 07:09:44;;;;;;;3.50;1.70;;;14.00;99.90;;;;;;5052106;28;20637;-65
2022/10/29 07:12:10;;;;;;;10.83;3.07;;;14.00;99.90;;;;;;5050956;28;20178;-65
2022/10/29 07:14:36;;;;;;;10.70;2.67;;;14.10;99.90;;;;;;5051865;28;20514;-65
2022/10/29 07:17:01;;;;;;;6.00;2.20;;;14.20;99.90;;;;;;5051699;28;20265;-65
2022/10/29 07:19:27;;;;;;;4.77;2.20;;;14.30;99.90;;;;;;5051364;28;20178;-66
2022/10/29 07:21:52;;;;;;;22.93;3.30;;;14.50;99.90;;;;;;5051012;28;20192;-66
2022/10/29 07:24:18;;;;;;;3.43;2.00;;;14.70;99.90;;;;;;5051673;28;20579;-66
2022/10/29 07:26:44;;;;;;;9.03;2.13;;;14.80;99.90;;;;;;5050967;28;20190;-66
2022/10/29 07:29:09;;;;;;;7.23;2.20;;;14.90;99.90;;;;;;5051637;28;20178;-66
2022/10/29 07:31:35;;;;;;;4.13;2.27;;;15.00;99.90;;;;;;5050085;28;20264;-66
2022/10/29 07:34:01;;;;;;;5.77;1.63;;;15.10;99.90;;;;;;5051120;28;20201;-66
2022/10/29 07:36:29;;;;;;;5.17;1.70;;;15.20;99.90;;;;;;5051100;28;20193;-66
2022/10/29 07:38:55;;;;;;;18.47;2.73;;;15.30;99.90;;;;;;5051498;28;20174;-66
2022/10/29 07:41:20;;;;;;;2.60;1.30;;;15.40;99.90;;;;;;5049694;28;20419;-66
2022/10/29 07:43:46;;;;;;;5.30;1.70;;;15.60;99.90;;;;;;5039260;28;20178;-66
2022/10/29 07:46:12;;;;;;;9.13;2.43;;;15.70;99.90;;;;;;5050005;28;20217;-66
2022/10/29 07:48:37;;;;;;;4.93;2.50;;;15.90;99.90;;;;;;5051379;28;20190;-66
2022/10/29 07:51:03;;;;;;;5.70;2.23;;;16.00;99.90;;;;;;5051382;28;20201;-66
2022/10/29 07:53:31;;;;;;;4.60;2.27;;;16.30;99.90;;;;;;5051149;28;20180;-66
2022/10/29 07:55:57;;;;;;;5.60;1.93;;;16.40;99.90;;;;;;5051424;28;20255;-66
2022/10/29 07:58:24;;;;;;;6.47;1.47;;;16.50;99.90;;;;;;5051156;28;20917;-66
2022/10/29 08:00:50;;;;;;;14.23;2.10;;;16.70;99.90;;;;;;5050972;28;20652;-66
2022/10/29 08:03:16;;;;;;;4.63;1.50;;;16.90;99.90;;;;;;5050660;28;20436;-66
2022/10/29 08:05:41;;;;;;;8.63;1.90;;;17.10;99.90;;;;;;5050721;28;20216;-66
2022/10/29 08:08:07;;;;;;;7.70;2.60;;;17.30;99.90;;;;;;5054210;28;20184;-66
2022/10/29 08:10:34;;;;;;;4.83;1.60;;;17.50;99.90;;;;;;5055160;28;20197;-66
2022/10/29 08:13:02;;;;;;;13.03;2.10;;;17.70;99.90;;;;;;5047108;28;20685;-66
2022/10/29 08:15:29;;;;;;;5.47;2.10;;;18.00;99.90;;;;;;5054760;28;20460;-66
2022/10/29 08:17:55;;;;;;;2.33;1.20;;;18.30;99.90;;;;;;5055085;28;20438;-66
2022/10/29 08:20:23;;;;;;;10.43;2.60;;;18.60;99.90;;;;;;5054799;28;20779;-67
2022/10/29 08:22:48;;;;;;;2.93;1.43;;;18.90;99.90;;;;;;5054649;28;21150;-66
2022/10/29 08:25:15;;;;;;;14.53;2.50;;;19.20;99.20;;;;;;5055307;28;20506;-66
2022/10/29 08:27:41;;;;;;;7.33;1.53;;;19.50;98.90;;;;;;5054519;28;20223;-66
2022/10/29 08:30:08;;;;;;;3.20;1.73;;;19.60;98.40;;;;;;5054078;28;20420;-66
2022/10/29 08:32:34;;;;;;;2.80;1.33;;;19.70;98.30;;;;;;5054366;28;20178;-66
2022/10/29 08:35:00;;;;;;;4.60;1.60;;;19.70;98.70;;;;;;5054839;28;20817;-66
2022/10/29 08:37:26;;;;;;;4.17;2.30;;;19.60;98.50;;;;;;5053520;28;20646;-66
2022/10/29 08:39:51;;;;;;;4.50;1.53;;;19.50;98.60;;;;;;5055033;28;20177;-66
2022/10/29 08:42:33;;;;;;;12.40;2.77;;;19.50;98.20;;;;;;5052707;28;20237;-66
2022/10/29 08:45:14;;;;;;;7.90;2.43;;;19.40;98.20;;;;;;5054740;28;20190;-65
2022/10/29 08:48:19;;;;;;;9.67;2.50;;;19.30;98.50;;;;;;5054440;28;20439;-66
2022/10/29 08:50:59;;;;;;;8.93;1.90;;;19.20;97.90;;;;;;5052772;28;20431;-66
2022/10/29 08:53:34;;;;;;;6.23;1.83;;;19.20;98.10;;;;;;5045885;28;20426;-66
2022/10/29 08:56:01;;;;;;;6.73;1.40;;;19.10;98.20;;;;;;5054327;28;20552;-65
2022/10/29 08:58:36;;;;;;;8.70;1.90;;;19.10;97.70;;;;;;5053946;28;20412;-66
2022/10/29 09:01:02;;;;;;;6.53;2.23;;;19.10;98.10;;;;;;5054214;28;20423;-66
2022/10/29 09:03:28;;;;;;;4.90;2.60;;;19.20;96.90;;;;;;5053904;28;20560;-66
2022/10/29 09:06:24;;;;;;;17.40;2.93;;;19.30;97.00;;;;;;5053826;28;20194;-66
2022/10/29 09:09:07;;;;;;;11.20;2.13;;;19.30;96.80;;;;;;5039176;28;20431;-65
2022/10/29 09:11:53;;;;;;;8.23;2.47;;;19.40;96.60;;;;;;5050542;28;20421;-66
2022/10/29 09:14:34;;;;;;;5.50;1.70;;;19.40;96.80;;;;;;5052801;28;20502;-66
2022/10/29 09:17:15;;;;;;;4.63;1.37;;;19.40;96.30;;;;;;5054836;28;20404;-66
2022/10/29 09:20:04;;;;;;;3.03;1.30;;;19.40;96.30;;;;;;5054146;28;20412;-66
2022/10/29 09:22:48;;;;;;;4.90;2.20;;;19.30;96.60;;;;;;5054421;28;20417;-65
2022/10/29 09:25:21;;;;;;;8.00;1.67;;;19.30;97.00;;;;;;5054706;28;20424;-66
2022/10/29 09:27:46;;;;;;;9.03;2.17;;;19.30;96.50;;;;;;5055428;28;20432;-65
2022/10/29 09:30:15;;;;;;;7.10;2.50;;;19.30;96.10;;;;;;5056184;28;20432;-66
2022/10/29 09:32:52;;;;;;;6.17;1.97;;;19.50;95.70;;;;;;5056733;28;20185;-66
2022/10/29 09:35:20;;;;;;;6.47;1.80;;;19.50;95.70;;;;;;5062717;28;20459;-65
2022/10/29 09:37:58;;;;;;;15.20;2.40;;;19.60;95.50;;;;;;5065160;28;20416;-65
2022/10/29 09:40:33;;;;;;;15.73;2.37;;;19.80;95.80;;;;;;5065797;28;20454;-65
2022/10/29 09:43:05;;;;;;;6.70;1.80;;;19.80;96.00;;;;;;5065733;28;20422;-65
2022/10/29 09:45:41;;;;;;;3.13;1.40;;;19.80;96.60;;;;;;5042415;28;20424;-65
2022/10/29 09:48:44;;;;;;;3.00;1.10;;;19.90;94.90;;;;;;5050170;28;20462;-66
2022/10/29 09:51:48;;;;;;;11.60;1.90;;;20.00;94.90;;;;;;5052374;28;20396;-66
2022/10/29 09:54:13;;;;;;;10.33;1.37;;;20.20;95.10;;;;;;5041450;28;20469;-67
2022/10/29 09:56:41;;;;;;;7.10;1.57;;;20.30;95.80;;;;;;5039895;28;20417;-67
2022/10/29 09:59:20;;;;;;;5.10;1.20;;;20.40;95.20;;;;;;5053578;28;20634;-68
2022/10/29 10:01:47;;;;;;;5.43;1.60;;;20.40;95.30;;;;;;5053178;28;21353;-67
2022/10/29 10:04:27;;;;;;;11.53;2.03;;;20.60;94.50;;;;;;5053313;28;20434;-67
2022/10/29 10:07:07;;;;;;;6.00;2.00;;;20.80;95.00;;;;;;5052840;28;20446;-67
2022/10/29 10:09:54;;;;;;;5.50;2.63;;;21.10;93.60;;;;;;5053323;28;20889;-67
2022/10/29 10:12:22;;;;;;;7.47;1.60;;;21.30;93.10;;;;;;5042404;28;20421;-67
2022/10/29 10:14:48;;;;;;;2.60;1.67;;;21.50;93.10;;;;;;5042590;28;20466;-66
2022/10/29 10:17:14;;;;;;;18.17;2.07;;;21.60;93.30;;;;;;5053002;28;20412;-66
2022/10/29 10:19:45;;;;;;;5.53;1.93;;;21.80;93.40;;;;;;5052543;28;20177;-67
2022/10/29 10:22:20;;;;;;;5.00;2.40;;;22.00;91.80;;;;;;5052049;28;20200;-67
2022/10/29 10:24:45;;;;;;;4.80;1.83;;;22.20;92.00;;;;;;5052675;28;20422;-67
2022/10/29 10:27:17;;;;;;;7.23;2.30;;;22.40;91.60;;;;;;5052197;28;20773;-67
2022/10/29 10:29:43;;;;;;;4.10;1.93;;;22.50;91.00;;;;;;5051527;28;20216;-67
2022/10/29 10:32:14;;;;;;;3.63;1.60;;;22.60;90.90;;;;;;5051860;28;20458;-67
2022/10/29 10:34:40;;;;;;;6.30;1.47;;;22.60;90.90;;;;;;5052901;28;20796;-67
2022/10/29 10:37:09;;;;;;;2.17;1.10;;;22.60;92.10;;;;;;5038515;28;20949;-67
2022/10/29 10:39:37;;;;;;;3.90;1.90;;;22.70;92.00;;;;;;5052711;28;20566;-67
2022/10/29 10:42:21;;;;;;;2.67;1.43;;;22.90;91.10;;;;;;5050804;28;20955;-67
2022/10/29 10:44:51;;;;;;;3.50;1.10;;;23.00;89.40;;;;;;5052433;28;20462;-67
2022/10/29 10:47:19;;;;;;;10.07;1.90;;;23.10;89.30;;;;;;5052316;28;20419;-67
2022/10/29 10:49:44;;;;;;;7.97;1.90;;;23.20;91.00;;;;;;5052433;28;20415;-67
2022/10/29 10:52:26;;;;;;;4.47;1.63;;;23.20;91.00;;;;;;5051662;28;20416;-67
2022/10/29 10:54:59;;;;;;;3.70;1.70;;;23.40;90.30;;;;;;5052557;28;20217;-67
2022/10/29 10:57:31;;;;;;;4.70;1.70;;;23.40;91.00;;;;;;5052281;28;20464;-67
2022/10/29 11:00:05;;;;;;;2.10;0.93;;;23.50;88.60;;;;;;5052363;28;20407;-67
2022/10/29 11:02:51;;;;;;;9.07;1.07;;;23.70;88.00;;;;;;5051607;28;20426;-67
2022/10/29 11:05:24;;;;;;;5.93;1.67;;;23.80;89.20;;;;;;5052132;28;20930;-67
2022/10/29 11:08:03;;;;;;;9.67;2.13;;;23.90;87.20;;;;;;5051486;28;20428;-66
2022/10/29 11:10:44;;;;;;;10.70;1.80;;;24.00;86.80;;;;;;5045509;28;20447;-67
2022/10/29 11:13:15;;;;;;;29.13;1.87;;;24.00;87.90;;;;;;5043074;28;20738;-67
2022/10/29 11:15:48;;;;;;;11.63;1.67;;;24.10;86.20;;;;;;5051761;28;20566;-67
2022/10/29 11:18:20;;;;;;;3.43;1.90;;;24.20;85.00;;;;;;5051411;28;20904;-67
2022/10/29 11:20:58;;;;;;;3.47;1.50;;;24.20;85.00;;;;;;5051623;28;20419;-67
2022/10/29 11:23:38;;;;;;;3.63;1.57;;;24.10;87.90;;;;;;5051226;28;20424;-67
2022/10/29 11:26:16;;;;;;;5.23;1.73;;;24.20;84.70;;;;;;5051912;28;20437;-67
2022/10/29 11:29:07;;;;;;;6.90;1.80;;;24.30;85.50;;;;;;5051125;28;20735;-67
2022/10/29 11:31:57;;;;;;;9.33;1.93;;;24.40;85.60;;;;;;5050651;28;20444;-67
2022/10/29 11:34:40;;;;;;;2.77;1.20;;;24.50;84.90;;;;;;5041593;28;21182;-67
2022/10/29 11:37:26;;;;;;;10.73;2.33;;;24.60;84.30;;;;;;5051614;28;20462;-68
2022/10/29 11:40:04;;;;;;;5.30;1.63;;;24.70;84.20;;;;;;5051674;28;20499;-67
2022/10/29 11:42:30;;;;;;;4.07;1.63;;;24.70;83.70;;;;;;5049246;28;20495;-67
2022/10/29 11:44:58;;;;;;;6.77;2.30;;;24.70;83.10;;;;;;5051848;28;20852;-67
2022/10/29 11:47:53;;;;;;;3.90;1.80;;;24.80;83.90;;;;;;5051669;28;20637;-67
2022/10/29 11:50:22;;;;;;;4.50;1.47;;;24.90;82.60;;;;;;5041082;28;20438;-67
2022/10/29 11:53:14;;;;;;;13.93;2.40;;;25.00;81.90;;;;;;5050590;28;20910;-68
2022/10/29 11:55:52;;;;;;;9.10;2.67;;;25.00;81.50;;;;;;5051346;28;20584;-67
2022/10/29 11:58:23;;;;;;;5.80;2.20;;;25.10;81.40;;;;;;5051182;28;20735;-67
2022/10/29 12:01:22;;;;;;;4.43;1.87;;;25.00;83.20;;;;;;5051122;28;20538;-67
2022/10/29 12:04:11;;;;;;;2.83;1.27;;;25.00;81.80;;;;;;5050919;28;20480;-67
2022/10/29 12:06:36;;;;;;;3.93;1.70;;;25.00;80.50;;;;;;5051175;28;20915;-67
2022/10/29 12:09:14;;;;;;;2.20;1.40;;;24.90;82.30;;;;;;5050801;28;20434;-67
2022/10/29 12:12:00;;;;;;;4.90;2.00;;;24.90;82.30;;;;;;5050506;28;20192;-67
2022/10/29 12:14:28;;;;;;;7.03;2.20;;;24.90;82.40;;;;;;5051065;28;20482;-67
2022/10/29 12:17:06;;;;;;;7.07;3.23;;;24.80;81.20;;;;;;5051291;28;20969;-67
2022/10/29 12:19:51;;;;;;;7.70;2.87;;;24.80;81.90;;;;;;5051007;28;20411;-68
2022/10/29 12:22:34;;;;;;;7.13;3.00;;;24.70;85.70;;;;;;5050416;28;20428;-67
2022/10/29 12:25:18;;;;;;;9.20;2.70;;;24.60;84.90;;;;;;5051214;28;20531;-68
2022/10/29 12:27:54;;;;;;;7.27;1.83;;;24.60;85.20;;;;;;5050717;28;20426;-67
2022/10/29 12:30:22;;;;;;;4.97;1.70;;;24.50;84.60;;;;;;5050809;28;20896;-67
2022/10/29 12:32:54;;;;;;;2.63;1.53;;;24.40;85.10;;;;;;5050818;28;20805;-67
2022/10/29 12:35:34;;;;;;;2.40;1.30;;;24.20;86.10;;;;;;5051168;28;20454;-67
2022/10/29 12:38:40;;;;;;;7.60;2.10;;;24.00;87.20;;;;;;5050826;28;20416;-67
2022/10/29 12:41:12;;;;;;;4.17;1.67;;;23.90;89.50;;;;;;5028317;28;20470;-67
2022/10/29 12:43:39;;;;;;;4.80;2.37;;;23.90;88.30;;;;;;5027608;28;20428;-67
2022/10/29 12:46:25;;;;;;;23.10;2.50;;;23.90;88.40;;;;;;5040558;28;21129;-67
2022/10/29 12:49:00;;;;;;;4.57;1.77;;;24.00;84.00;;;;;;5051391;28;20446;-67
2022/10/29 12:51:48;;;;;;;4.17;1.53;;;24.00;85.40;;;;;;5050586;28;20430;-67
2022/10/29 12:54:31;;;;;;;3.20;1.63;;;24.10;85.90;;;;;;5052295;28;20438;-67
2022/10/29 12:57:16;;;;;;;3.70;1.60;;;24.30;86.40;;;;;;5053958;28;21281;-67
2022/10/29 12:59:42;;;;;;;6.10;1.93;;;24.30;86.70;;;;;;5052906;28;20764;-67
2022/10/29 13:02:23;;;;;;;5.53;1.47;;;24.30;85.30;;;;;;5053921;28;20462;-67
2022/10/29 13:05:09;;;;;;;3.40;1.67;;;24.40;85.90;;;;;;5054402;28;20777;-67